METAR Data
IDs: Format: Raw Decoded Include TAF

Data at: 1420 UTC 16 Aug 2022

VTCC 161400Z 00000KT 9999 SCT035 26/25 Q1005 NOSIG
VTCC 161330Z VRB01KT 9999 SCT035 26/25 Q1005 NOSIG
VTCC 161300Z VRB01KT 9999 SCT035 26/25 Q1004 NOSIG
VTCC 161230Z 14003KT 9999 BKN035 27/25 Q1004 NOSIG
VTCC 161200Z VRB01KT 9999 BKN035 27/26 Q1003 NOSIG
VTCC 161130Z 00000KT 9999 BKN035 27/25 Q1003 NOSIG
VTCC 161100Z 20004KT 180V240 9999 -RA BKN035 27/25 Q1003 NOSIG
VTCC 161030Z 18004KT 150V210 9999 -RA BKN035 27/25 Q1003 RETS NOSIG
VTCC 161000Z 20003KT 160V230 9000 -TSRA FEW025CB BKN035 28/25 Q1003 NOSIG
VTCC 160930Z 21005KT 180V250 9000 -TSRA FEW025CB BKN035 29/24 Q1003 TEMPO 4000 TSRA
VTCC 160900Z 24007KT 200V280 9999 VCSH FEW025CB BKN035 29/24 Q1002 TEMPO FM0910 4000 TSRA
VTCC 160830Z 23009KT 200V260 9999 FEW025CB BKN035 29/24 Q1003 TEMPO FM0910 4000 TSRA
VTCC 160800Z 24007KT 9999 VCSH FEW025CB BKN035 28/25 Q1003 NOSIG
VTCC 160730Z 23009KT 9999 -SHRA FEW025CB BKN030 27/25 Q1003 NOSIG
VTCC 160700Z 22007KT 180V260 9999 -SHRA FEW025CB BKN030 27/25 Q1004 TEMPO 4000 TSRA
VTCC 160630Z 23008KT 210V270 9999 VCSH FEW025CB BKN032 28/24 Q1005 TEMPO FM0645 4000 TSRA
VTCC 160600Z 18011KT 9999 -SHRA FEW025CB BKN032 28/25 Q1005 TEMPO FM0645 4000 TSRA
VTCC 160530Z 15009KT 120V180 9999 VCSH FEW025CB BKN032 28/25 Q1005 NOSIG
VTCC 160500Z 11006KT 090V150 9999 VCSH FEW025CB BKN032 29/25 Q1005 NOSIG
VTCC 160430Z 11003KT 050V220 9999 VCSH FEW025CB BKN032 29/24 Q1005 NOSIG
VTCC 160400Z VRB03KT 9999 BKN032 29/24 Q1006 NOSIG
VTCC 160330Z VRB02KT 9999 FEW018 BKN032 29/25 Q1006 NOSIG
VTCC 160300Z 04003KT 350V090 9999 FEW018 BKN032 28/24 Q1007 NOSIG
VTCC 160230Z 36003KT 330V060 9999 -RA FEW018 FEW025CB BKN032 27/24 Q1007 NOSIG

TAF VTCC 161100Z 1612/1718 22005KT 9999 BKN035
  BECMG 1613/1615 01005KT
  TEMPO 1614/1620 -TSRA FEW025CB BKN035
  TEMPO 1622/1706 -TSRA FEW025CB BKN035
  BECMG 1701/1703 17005KT
  TEMPO 1707/1713 14010G25KT 4000 TSRA FEW025CB BKN035